Alvorada do Norte, Brazil
Current Conditions -  °F | °C
As of 10:00 PM on Tuesday 25 Nov 2014 (Local Time) from SBAN Reporting Station
Broken Clouds Broken Clouds  
Wind Chill: 68°   Ceiling: 10000
Heat Index: 68°   Visibility: 6mi
Dew Point: 63°   Wind: 0mph
Humidity: 83%   Direction: NA
Pressure: 30.06"   Gusts: NA
Location:  14.48°S, 46.49°W
Report Text: SBAN 260000Z 00000KT 9999 FEW030 FEW035TCU BKN100 20/17 Q1018 RETS
Loading
Personal Weather Stations






























Interactive Weather Map New forecast layout! Learn more

10-Day Weather Forecast

Advertisements
Track Severe Weather on mobile